createdAt,value
2023-10-25T00:01:07.205Z,32.10
2023-10-25T00:03:36.508Z,28.00
2023-10-25T00:06:04.570Z,29.50
2023-10-25T00:08:32.540Z,26.50
2023-10-25T00:11:09.438Z,27.80
2023-10-25T00:13:37.672Z,28.80
2023-10-25T00:16:05.814Z,25.40
2023-10-25T00:18:33.902Z,25.90
2023-10-25T00:21:01.823Z,25.60
2023-10-25T00:23:29.795Z,24.40
2023-10-25T00:25:57.780Z,24.50
2023-10-25T00:28:25.861Z,25.30
2023-10-25T00:30:53.999Z,22.90
2023-10-25T00:33:21.988Z,24.70
2023-10-25T00:35:51.294Z,21.80
2023-10-25T00:38:19.260Z,22.10
2023-10-25T00:40:47.256Z,19.60
2023-10-25T00:43:23.822Z,18.10
2023-10-25T00:46:02.652Z,16.10
2023-10-25T00:48:31.948Z,15.60
2023-10-25T00:51:01.014Z,18.00
2023-10-25T00:53:32.423Z,14.90
2023-10-25T00:56:02.295Z,15.70
2023-10-25T00:58:32.072Z,17.70
2023-10-25T01:01:01.367Z,17.40
2023-10-25T01:03:29.519Z,17.00
2023-10-25T01:05:58.017Z,17.50
2023-10-25T01:08:26.744Z,16.20
2023-10-25T01:10:54.870Z,17.20
2023-10-25T01:13:23.200Z,17.20
2023-10-25T01:15:51.693Z,15.20
2023-10-25T01:18:20.087Z,14.00
2023-10-25T01:20:48.234Z,14.30
2023-10-25T01:23:16.441Z,13.70
2023-10-25T01:25:44.924Z,13.30
2023-10-25T01:28:13.462Z,11.20
2023-10-25T01:30:41.881Z,12.60
2023-10-25T01:33:10.080Z,13.80
2023-10-25T01:35:38.108Z,13.60
2023-10-25T01:38:06.280Z,12.20
2023-10-25T01:40:34.304Z,12.90
2023-10-25T01:43:02.323Z,13.20
2023-10-25T01:45:31.569Z,12.60
2023-10-25T01:47:59.577Z,13.00
2023-10-25T01:50:27.558Z,14.80
2023-10-25T01:52:55.519Z,14.70
2023-10-25T01:55:23.493Z,14.90
2023-10-25T01:57:51.599Z,14.60
2023-10-25T02:00:19.713Z,14.10
2023-10-25T02:02:48.166Z,14.20
2023-10-25T02:05:16.413Z,14.70
2023-10-25T02:07:45.332Z,15.30
2023-10-25T02:10:13.863Z,16.40
2023-10-25T02:12:41.908Z,16.20
2023-10-25T02:15:10.070Z,14.80
2023-10-25T02:17:38.371Z,15.80
2023-10-25T02:20:07.163Z,16.80
2023-10-25T02:22:35.201Z,15.00
2023-10-25T02:25:03.258Z,14.60
2023-10-25T02:27:31.394Z,14.40
2023-10-25T02:29:59.435Z,15.00
2023-10-25T02:32:27.484Z,15.70
2023-10-25T02:34:55.988Z,16.40
2023-10-25T02:37:23.939Z,14.50
2023-10-25T02:39:51.893Z,15.40
2023-10-25T02:42:19.989Z,16.50
2023-10-25T02:44:47.957Z,15.50
2023-10-25T02:47:15.974Z,14.70
2023-10-25T02:49:44.051Z,14.50
2023-10-25T02:52:12.268Z,17.40
2023-10-25T02:54:40.260Z,17.20
2023-10-25T02:57:08.493Z,14.90
2023-10-25T02:59:36.528Z,15.80
2023-10-25T03:02:05.433Z,15.20
2023-10-25T03:04:33.510Z,13.40
2023-10-25T03:07:01.560Z,12.40
2023-10-25T03:09:29.618Z,12.60
2023-10-25T03:11:59.304Z,13.30
2023-10-25T03:14:27.523Z,12.70
2023-10-25T03:16:55.668Z,12.10
2023-10-25T03:19:23.719Z,12.10
2023-10-25T03:21:51.688Z,12.80
2023-10-25T03:24:19.755Z,12.60
2023-10-25T03:26:47.731Z,14.10
2023-10-25T03:29:15.872Z,15.20
2023-10-25T03:31:44.000Z,12.40
2023-10-25T03:34:12.217Z,12.10
2023-10-25T03:36:40.357Z,10.60
2023-10-25T03:39:08.392Z,11.60
2023-10-25T03:41:36.347Z,11.70
2023-10-25T03:44:04.740Z,10.30
2023-10-25T03:46:32.760Z,8.40
2023-10-25T03:49:00.970Z,8.10
2023-10-25T03:51:29.168Z,7.60
2023-10-25T03:53:57.130Z,6.40
2023-10-25T03:56:25.126Z,6.80
2023-10-25T03:58:53.162Z,8.60
2023-10-25T04:01:21.230Z,5.00
2023-10-25T04:03:49.402Z,4.70
2023-10-25T04:06:17.488Z,4.90
2023-10-25T04:08:45.458Z,4.00
2023-10-25T04:11:13.690Z,3.90
2023-10-25T04:13:41.630Z,3.80
2023-10-25T04:16:10.733Z,3.90
2023-10-25T04:18:39.328Z,4.50
2023-10-25T04:21:12.250Z,3.90
2023-10-25T04:23:40.890Z,4.00
2023-10-25T04:26:14.916Z,3.80
2023-10-25T04:28:45.092Z,4.20
2023-10-25T04:31:13.824Z,3.50
2023-10-25T04:33:41.915Z,3.50
2023-10-25T04:36:10.072Z,3.40
2023-10-25T04:38:38.170Z,4.30
2023-10-25T04:41:06.429Z,4.10
2023-10-25T04:43:34.426Z,3.10
2023-10-25T04:46:04.637Z,3.00
2023-10-25T04:48:32.784Z,4.80
2023-10-25T04:51:04.101Z,4.00
2023-10-25T04:53:32.206Z,3.90
2023-10-25T04:56:01.027Z,2.90
2023-10-25T04:58:30.175Z,2.80
2023-10-25T05:00:58.271Z,2.70
2023-10-25T05:03:26.330Z,7.20
2023-10-25T05:05:56.314Z,5.90
2023-10-25T05:08:24.656Z,4.30
2023-10-25T05:10:53.354Z,5.20
2023-10-25T05:13:21.644Z,4.30
2023-10-25T05:15:50.076Z,4.70
2023-10-25T05:18:18.472Z,3.30
2023-10-25T05:20:46.632Z,3.60
2023-10-25T05:23:15.533Z,3.50
2023-10-25T05:25:44.782Z,6.40
2023-10-25T05:28:14.262Z,11.10
2023-10-25T05:30:42.661Z,7.40
2023-10-25T05:33:12.880Z,4.70
2023-10-25T05:35:41.490Z,5.30
2023-10-25T05:38:09.841Z,5.00
2023-10-25T05:40:38.219Z,5.10
2023-10-25T05:43:12.572Z,6.00
2023-10-25T05:45:41.198Z,5.60
2023-10-25T05:48:10.787Z,8.60
2023-10-25T05:50:39.192Z,10.80
2023-10-25T05:53:07.400Z,6.50
2023-10-25T05:55:35.828Z,7.00
2023-10-25T05:58:04.406Z,7.60
2023-10-25T06:00:32.845Z,9.30
2023-10-25T06:03:03.855Z,7.90
2023-10-25T06:05:35.508Z,12.00
2023-10-25T06:08:04.506Z,8.00
2023-10-25T06:10:33.064Z,8.30
2023-10-25T06:13:01.473Z,8.20
2023-10-25T06:15:29.552Z,11.10
2023-10-25T06:17:57.673Z,8.30
2023-10-25T06:20:25.707Z,9.60
2023-10-25T06:22:54.862Z,10.80
2023-10-25T06:25:22.844Z,10.30
2023-10-25T06:27:50.784Z,11.90
2023-10-25T06:30:18.887Z,11.10
2023-10-25T06:32:46.917Z,8.20
2023-10-25T06:35:15.026Z,8.30
2023-10-25T06:37:43.250Z,7.80
2023-10-25T06:40:11.665Z,9.00
2023-10-25T06:42:39.958Z,7.50
2023-10-25T06:45:09.680Z,6.80
2023-10-25T06:47:38.001Z,6.10
2023-10-25T06:50:06.859Z,9.00
2023-10-25T06:52:35.147Z,6.50
2023-10-25T06:55:03.597Z,7.90
2023-10-25T06:57:32.363Z,6.30
2023-10-25T07:00:01.076Z,5.50
2023-10-25T07:02:39.472Z,9.10
2023-10-25T07:05:14.800Z,5.70
2023-10-25T07:07:45.417Z,5.60
2023-10-25T07:10:14.339Z,5.70
2023-10-25T07:12:42.497Z,6.70
2023-10-25T07:15:12.574Z,7.20
2023-10-25T07:17:42.529Z,7.90
2023-10-25T07:20:11.422Z,5.70
2023-10-25T07:22:41.650Z,5.00
2023-10-25T07:25:10.288Z,4.80
2023-10-25T07:27:38.374Z,4.60
2023-10-25T07:30:06.993Z,6.00
2023-10-25T07:32:36.568Z,5.70
2023-10-25T07:35:05.167Z,4.40
2023-10-25T07:37:33.882Z,10.00
2023-10-25T07:40:06.501Z,6.20
2023-10-25T07:42:34.583Z,6.40
2023-10-25T07:45:02.664Z,5.80
2023-10-25T07:47:30.668Z,4.20
2023-10-25T07:49:58.658Z,4.50
2023-10-25T07:52:29.028Z,7.40
2023-10-25T07:54:57.235Z,5.30
2023-10-25T07:58:08.141Z,4.30
2023-10-25T08:00:15.782Z,3.00
2023-10-25T08:02:43.903Z,3.70
2023-10-25T08:05:11.978Z,3.80
2023-10-25T08:07:39.940Z,5.30
2023-10-25T08:10:08.620Z,3.80
2023-10-25T08:12:36.950Z,3.60
2023-10-25T08:15:06.420Z,4.10
2023-10-25T08:17:35.457Z,4.10
2023-10-25T08:20:04.537Z,6.10
2023-10-25T08:22:34.674Z,3.10
2023-10-25T08:25:02.708Z,3.30
2023-10-25T08:27:31.178Z,5.60
2023-10-25T08:29:59.291Z,5.30
2023-10-25T08:32:27.505Z,5.00
2023-10-25T08:34:55.704Z,10.60
2023-10-25T08:37:23.840Z,8.00
2023-10-25T08:39:51.847Z,2.80
2023-10-25T08:42:20.322Z,5.10
2023-10-25T08:44:49.058Z,2.70
2023-10-25T08:47:17.154Z,4.10
2023-10-25T08:49:45.486Z,3.90
2023-10-25T08:52:18.160Z,6.20
2023-10-25T08:54:46.267Z,3.60
2023-10-25T08:57:14.315Z,3.10
2023-10-25T08:59:47.911Z,3.40
2023-10-25T09:02:17.367Z,3.90
2023-10-25T09:05:00.009Z,5.50
2023-10-25T09:07:32.902Z,4.20
2023-10-25T09:10:00.952Z,8.20
2023-10-25T09:12:29.029Z,3.70
2023-10-25T09:14:57.580Z,4.30
2023-10-25T09:17:25.789Z,5.30
2023-10-25T09:19:53.841Z,5.80
2023-10-25T09:22:29.674Z,8.50
2023-10-25T09:25:01.980Z,10.70
2023-10-25T09:27:31.600Z,7.60
2023-10-25T09:30:26.274Z,6.80
2023-10-25T09:32:55.915Z,3.90
2023-10-25T09:35:24.302Z,4.10
2023-10-25T09:37:52.372Z,4.00
2023-10-25T09:40:20.759Z,4.60
2023-10-25T09:42:53.903Z,5.80
2023-10-25T09:45:27.437Z,7.10
2023-10-25T09:50:33.666Z,7.20
2023-10-25T09:53:11.638Z,3.00
2023-10-25T09:55:46.805Z,3.80
2023-10-25T09:58:16.509Z,4.80
2023-10-25T10:00:44.779Z,4.10
2023-10-25T10:03:27.886Z,5.70
2023-10-25T10:06:06.594Z,3.40
2023-10-25T10:09:01.768Z,5.50
2023-10-25T10:11:39.182Z,9.90
2023-10-25T10:14:30.280Z,8.40
2023-10-25T10:17:10.408Z,6.20
2023-10-25T10:19:40.506Z,5.00
2023-10-25T10:22:11.486Z,5.10
2023-10-25T10:24:58.205Z,3.80
2023-10-25T10:27:27.546Z,7.40
2023-10-25T10:29:55.808Z,4.30
2023-10-25T10:32:28.827Z,4.50
2023-10-25T10:35:00.957Z,8.70
2023-10-25T10:37:30.862Z,5.50
2023-10-25T10:40:03.306Z,2.90
2023-10-25T10:42:37.258Z,12.30
2023-10-25T10:45:07.932Z,5.30
2023-10-25T10:47:54.131Z,7.20
2023-10-25T10:50:24.582Z,8.50
2023-10-25T10:52:53.860Z,3.40
2023-10-25T10:55:24.572Z,7.40
2023-10-25T11:00:27.103Z,2.10
2023-10-25T11:02:55.649Z,2.10
2023-10-25T11:05:24.634Z,11.70
2023-10-25T11:07:54.783Z,3.20
2023-10-25T11:10:22.991Z,4.00
2023-10-25T11:12:51.312Z,4.80
2023-10-25T11:15:20.959Z,4.60
2023-10-25T11:17:49.018Z,1.40
2023-10-25T11:20:17.029Z,2.50
2023-10-25T11:22:44.937Z,3.10
2023-10-25T11:25:21.895Z,4.40
2023-10-25T11:27:50.208Z,6.00
2023-10-25T11:30:19.016Z,6.50
2023-10-25T11:32:49.906Z,2.60
2023-10-25T11:35:29.252Z,2.50
2023-10-25T11:38:00.258Z,6.30
2023-10-25T11:40:43.820Z,1.70
2023-10-25T11:43:11.856Z,2.80
2023-10-25T11:45:41.565Z,2.40
2023-10-25T11:48:11.241Z,3.10
2023-10-25T11:50:44.738Z,2.90
2023-10-25T11:53:15.333Z,8.30
2023-10-25T11:55:43.569Z,3.90
2023-10-25T11:58:18.813Z,4.10
2023-10-25T12:00:46.788Z,2.70
2023-10-25T12:03:15.853Z,4.20
2023-10-25T12:05:44.589Z,5.00
2023-10-25T12:08:12.622Z,3.80
2023-10-25T12:10:40.659Z,4.90
2023-10-25T12:13:08.641Z,3.20
2023-10-25T12:15:36.685Z,4.50
2023-10-25T12:18:04.746Z,3.60
2023-10-25T12:20:34.268Z,1.50
2023-10-25T12:23:03.147Z,3.50
2023-10-25T12:25:31.921Z,4.30
2023-10-25T12:27:59.972Z,3.50
2023-10-25T12:30:28.015Z,3.50
2023-10-25T12:32:56.322Z,5.20
2023-10-25T12:35:24.459Z,1.60
2023-10-25T12:37:52.576Z,3.20
2023-10-25T12:40:20.821Z,5.00
2023-10-25T12:42:49.818Z,3.60
2023-10-25T12:45:18.689Z,1.80
2023-10-25T12:47:46.701Z,7.20
2023-10-25T12:50:14.832Z,2.90
2023-10-25T12:52:43.080Z,1.70
2023-10-25T12:55:12.516Z,2.70
2023-10-25T12:57:41.056Z,1.20
2023-10-25T13:00:12.285Z,3.10
2023-10-25T13:02:41.020Z,1.40
2023-10-25T13:05:09.344Z,4.70
2023-10-25T13:07:37.307Z,3.00
2023-10-25T13:10:05.990Z,3.90
2023-10-25T13:12:36.585Z,6.70
2023-10-25T13:15:06.307Z,3.00
2023-10-25T13:17:34.728Z,3.80
2023-10-25T13:20:03.902Z,2.40
2023-10-25T13:22:32.481Z,4.80
2023-10-25T13:25:00.752Z,4.50
2023-10-25T13:27:28.866Z,6.70
2023-10-25T13:29:57.306Z,3.00
2023-10-25T13:32:28.526Z,8.10
2023-10-25T13:34:57.167Z,7.50
2023-10-25T13:37:25.441Z,3.40
2023-10-25T13:39:54.207Z,4.40
2023-10-25T13:42:23.572Z,4.30
2023-10-25T13:44:51.796Z,11.20
2023-10-25T13:47:19.769Z,8.20
2023-10-25T13:49:47.788Z,5.10
2023-10-25T13:52:16.599Z,6.00
2023-10-25T13:54:45.029Z,7.20
2023-10-25T13:57:13.164Z,13.70
2023-10-25T13:59:41.847Z,7.50
2023-10-25T14:02:10.976Z,7.80
2023-10-25T14:04:39.631Z,8.30
2023-10-25T14:07:07.642Z,7.40
2023-10-25T14:09:37.951Z,9.20
2023-10-25T14:12:07.233Z,7.10
2023-10-25T14:14:35.756Z,9.10
2023-10-25T14:17:03.942Z,8.70
2023-10-25T14:19:31.916Z,6.30
2023-10-25T14:21:59.966Z,5.30
2023-10-25T14:24:33.668Z,5.10
2023-10-25T14:27:05.200Z,4.90
2023-10-25T14:29:33.523Z,2.30
2023-10-25T14:32:03.544Z,6.30
2023-10-25T14:34:31.920Z,8.00
2023-10-25T14:37:00.558Z,6.10
2023-10-25T14:39:28.605Z,5.00
2023-10-25T14:41:56.668Z,5.30
2023-10-25T14:44:24.797Z,5.40
2023-10-25T14:46:54.044Z,3.90
2023-10-25T14:49:22.015Z,4.90
2023-10-25T14:51:50.659Z,3.90
2023-10-25T14:54:18.673Z,3.90
2023-10-25T14:56:46.735Z,4.50
2023-10-25T14:59:14.696Z,7.80
2023-10-25T15:01:44.814Z,5.80
2023-10-25T15:04:13.111Z,6.50
2023-10-25T15:06:41.302Z,9.20
2023-10-25T15:09:09.270Z,6.30
2023-10-25T15:11:37.329Z,8.00
2023-10-25T15:14:05.357Z,6.80
2023-10-25T15:16:35.403Z,7.00
2023-10-25T15:19:03.845Z,8.50
2023-10-25T15:21:31.878Z,6.20
2023-10-25T15:24:00.149Z,7.20
2023-10-25T15:26:28.185Z,7.20
2023-10-25T15:28:56.541Z,10.20
2023-10-25T15:31:24.589Z,8.70
2023-10-25T15:33:53.319Z,8.50
2023-10-25T15:36:21.378Z,11.60
2023-10-25T15:38:56.219Z,13.80
2023-10-25T15:41:28.107Z,12.70
2023-10-25T15:43:56.162Z,12.40
2023-10-25T15:46:28.379Z,15.60
2023-10-25T15:48:58.348Z,20.20
2023-10-25T15:51:27.206Z,20.60
2023-10-25T15:53:57.056Z,21.10
2023-10-25T15:56:25.411Z,25.70
2023-10-25T15:58:53.385Z,20.70
2023-10-25T16:01:31.528Z,20.20
2023-10-25T16:04:02.144Z,26.90
2023-10-25T16:06:33.230Z,34.00
2023-10-25T16:09:01.636Z,67.20
2023-10-25T16:11:31.159Z,75.50
2023-10-25T16:13:59.154Z,43.50
2023-10-25T16:16:29.706Z,35.60
2023-10-25T16:18:57.796Z,33.40
2023-10-25T16:21:25.745Z,32.70
2023-10-25T16:23:53.860Z,35.30
2023-10-25T16:26:21.910Z,36.70
2023-10-25T16:28:51.064Z,36.90
2023-10-25T16:31:20.103Z,43.10
2023-10-25T16:33:49.944Z,38.00
2023-10-25T16:36:17.915Z,50.10
2023-10-25T16:38:45.946Z,67.40
2023-10-25T16:41:14.173Z,78.80
2023-10-25T16:43:42.151Z,126.10
2023-10-25T16:46:13.136Z,117.70
2023-10-25T16:48:43.392Z,147.80
2023-10-25T16:51:21.580Z,152.20
2023-10-25T16:53:51.239Z,122.00
2023-10-25T16:56:23.566Z,113.40
2023-10-25T16:58:51.765Z,103.80
2023-10-25T17:01:19.686Z,109.80
2023-10-25T17:03:47.817Z,117.20
2023-10-25T17:06:16.772Z,130.80
2023-10-25T17:08:45.195Z,150.10
2023-10-25T17:11:14.171Z,144.70
2023-10-25T17:13:42.399Z,143.10
2023-10-25T17:16:10.702Z,99.30
2023-10-25T17:18:40.825Z,60.00
2023-10-25T17:21:17.162Z,74.60
2023-10-25T17:23:47.699Z,68.10
2023-10-25T17:26:15.816Z,64.40
2023-10-25T17:28:43.789Z,58.80
2023-10-25T17:31:12.136Z,84.70
2023-10-25T17:33:40.194Z,97.50
2023-10-25T17:36:09.233Z,105.90
2023-10-25T17:38:37.607Z,104.80
2023-10-25T17:41:06.061Z,101.50
2023-10-25T17:43:34.139Z,105.50
2023-10-25T17:48:33.398Z,96.60
2023-10-25T17:51:10.288Z,93.40
2023-10-25T17:53:38.967Z,92.40
2023-10-25T17:56:07.506Z,91.30
2023-10-25T17:58:35.464Z,88.90
2023-10-25T18:01:03.596Z,110.30
2023-10-25T18:03:32.038Z,114.30
2023-10-25T18:06:06.575Z,109.30
2023-10-25T18:08:36.213Z,136.60
2023-10-25T18:11:07.139Z,112.70
2023-10-25T18:13:38.140Z,119.90
2023-10-25T18:16:12.298Z,128.80
2023-10-25T18:18:40.625Z,131.10
2023-10-25T18:21:08.732Z,121.60
2023-10-25T18:23:36.794Z,118.10
2023-10-25T18:26:05.135Z,101.80
2023-10-25T18:28:33.129Z,99.00
2023-10-25T18:31:58.668Z,117.10
2023-10-25T18:33:53.265Z,118.50
2023-10-25T18:36:21.645Z,177.60
2023-10-25T18:38:49.688Z,161.20
2023-10-25T18:41:17.662Z,132.10
2023-10-25T18:43:45.592Z,144.00
2023-10-25T18:46:13.629Z,125.10
2023-10-25T18:48:41.613Z,115.80
2023-10-25T18:51:14.180Z,124.40
2023-10-25T18:53:43.273Z,124.10
2023-10-25T18:56:11.263Z,105.20
2023-10-25T18:58:39.651Z,120.50
2023-10-25T19:01:13.412Z,115.10
2023-10-25T19:03:42.365Z,117.40
2023-10-25T19:06:24.005Z,121.10
2023-10-25T19:08:59.670Z,115.70
2023-10-25T19:11:29.033Z,109.80
2023-10-25T19:13:58.202Z,104.10
2023-10-25T19:16:27.264Z,103.70
2023-10-25T19:18:56.056Z,99.70
2023-10-25T19:21:24.494Z,110.70
2023-10-25T19:23:59.020Z,101.20
2023-10-25T19:26:33.845Z,109.60
2023-10-25T19:29:14.643Z,126.90
2023-10-25T19:31:42.564Z,185.10
2023-10-25T19:34:10.518Z,167.00
2023-10-25T19:36:38.575Z,130.20
2023-10-25T19:39:08.524Z,123.60
2023-10-25T19:41:36.641Z,98.50
2023-10-25T19:44:09.011Z,110.40
2023-10-25T19:46:37.722Z,122.00
2023-10-25T19:49:06.699Z,122.60
2023-10-25T19:51:39.271Z,91.30
2023-10-25T19:54:07.533Z,100.20
2023-10-25T19:56:36.494Z,103.10
2023-10-25T19:59:05.213Z,104.10
2023-10-25T20:01:33.395Z,93.20
2023-10-25T20:04:02.299Z,100.40
2023-10-25T20:06:30.447Z,103.50
2023-10-25T20:09:00.052Z,96.60
2023-10-25T20:11:28.359Z,99.10
2023-10-25T20:13:57.484Z,78.60
2023-10-25T20:16:25.699Z,81.70
2023-10-25T20:18:57.069Z,92.10
2023-10-25T20:21:25.003Z,82.90
2023-10-25T20:23:57.614Z,65.30
2023-10-25T20:26:33.453Z,57.10
2023-10-25T20:29:04.400Z,61.30
2023-10-25T20:31:32.673Z,56.00
2023-10-25T20:34:00.724Z,37.40
2023-10-25T20:36:28.756Z,47.20
2023-10-25T20:38:57.824Z,42.20
2023-10-25T20:41:27.846Z,45.70
2023-10-25T20:43:56.014Z,46.40
2023-10-25T20:46:24.399Z,48.40
2023-10-25T20:48:53.635Z,49.90
2023-10-25T20:51:24.279Z,44.80
2023-10-25T20:53:53.637Z,49.30
2023-10-25T20:56:21.914Z,43.90
2023-10-25T20:58:50.088Z,45.40
2023-10-25T21:01:18.583Z,50.10
2023-10-25T21:03:47.344Z,50.60
2023-10-25T21:06:15.729Z,42.90
2023-10-25T21:08:44.361Z,36.30
2023-10-25T21:11:12.863Z,45.40
2023-10-25T21:13:40.968Z,44.30
2023-10-25T21:16:13.598Z,47.40
2023-10-25T21:18:41.802Z,46.70
2023-10-25T21:21:10.033Z,44.80
2023-10-25T21:23:41.858Z,47.20
2023-10-25T21:26:11.681Z,46.30
2023-10-25T21:28:39.850Z,47.90
2023-10-25T21:31:09.499Z,49.50
2023-10-25T21:33:38.563Z,47.80
2023-10-25T21:36:08.783Z,37.00
2023-10-25T21:38:37.397Z,41.10
2023-10-25T21:41:07.239Z,47.70
2023-10-25T21:43:35.971Z,44.20
2023-10-25T21:46:04.204Z,47.70
2023-10-25T21:48:32.519Z,42.40
2023-10-25T21:51:02.603Z,42.30
2023-10-25T21:53:31.096Z,45.70
2023-10-25T21:56:22.798Z,37.40
2023-10-25T21:59:49.253Z,39.40
2023-10-25T22:01:35.373Z,41.20
2023-10-25T22:04:04.157Z,49.50
2023-10-25T22:06:32.918Z,53.20
2023-10-25T22:09:01.082Z,42.20
2023-10-25T22:11:29.305Z,45.70
2023-10-25T22:13:57.321Z,41.90
2023-10-25T22:16:25.357Z,43.20
2023-10-25T22:18:53.494Z,38.70
2023-10-25T22:21:21.682Z,43.50
2023-10-25T22:23:49.708Z,40.50
2023-10-25T22:26:17.895Z,41.20
2023-10-25T22:28:45.838Z,38.00
2023-10-25T22:31:14.093Z,41.10
2023-10-25T22:33:42.263Z,40.70
2023-10-25T22:36:13.155Z,39.60
2023-10-25T22:38:41.118Z,41.10
2023-10-25T22:43:44.605Z,42.80
2023-10-25T22:46:12.647Z,44.30
2023-10-25T22:48:40.772Z,45.70
2023-10-25T22:51:09.433Z,43.80
2023-10-25T22:53:37.398Z,40.50
2023-10-25T22:56:06.106Z,38.50
2023-10-25T22:58:34.015Z,39.70
2023-10-25T23:01:02.087Z,37.30
2023-10-25T23:03:30.432Z,41.00
2023-10-25T23:06:00.713Z,34.30
2023-10-25T23:08:28.754Z,32.50
2023-10-25T23:10:56.719Z,32.30
2023-10-25T23:13:24.701Z,29.80
2023-10-25T23:15:52.721Z,31.90
2023-10-25T23:18:20.809Z,30.00
2023-10-25T23:20:50.622Z,28.60
2023-10-25T23:23:19.076Z,27.10
2023-10-25T23:25:46.999Z,28.40
2023-10-25T23:28:15.010Z,28.40
2023-10-25T23:30:42.986Z,29.40
2023-10-25T23:33:10.985Z,29.40
2023-10-25T23:35:38.986Z,28.40
2023-10-25T23:38:06.941Z,27.20
2023-10-25T23:40:34.868Z,26.90
2023-10-25T23:43:02.928Z,27.00
2023-10-25T23:45:30.887Z,24.00
2023-10-25T23:47:58.999Z,28.80
2023-10-25T23:50:27.054Z,26.50
2023-10-25T23:52:54.936Z,28.50
2023-10-25T23:55:22.967Z,26.90
2023-10-25T23:57:51.072Z,23.40
